createdAt,value
2022-12-31T00:02:00.020Z,71.81
2022-12-31T00:04:32.739Z,71.89
2022-12-31T00:07:02.916Z,71.56
2022-12-31T00:09:36.299Z,71.42
2022-12-31T00:12:10.077Z,71.42
2022-12-31T00:14:40.233Z,71.58
2022-12-31T00:17:11.528Z,71.48
2022-12-31T00:19:44.095Z,71.23
2022-12-31T00:22:14.260Z,71.95
2022-12-31T00:24:44.094Z,71.32
2022-12-31T00:27:13.935Z,71.08
2022-12-31T00:29:46.082Z,71.13
2022-12-31T00:32:15.961Z,70.86
2022-12-31T00:34:48.726Z,70.54
2022-12-31T00:37:19.011Z,70.54
2022-12-31T00:39:49.083Z,70.64
2022-12-31T00:42:19.105Z,70.31
2022-12-31T00:44:48.873Z,70.44
2022-12-31T00:47:19.221Z,70.59
2022-12-31T00:49:52.937Z,70.07
2022-12-31T00:52:23.053Z,70.22
2022-12-31T00:54:52.989Z,70.00
2022-12-31T00:57:23.137Z,70.42
2022-12-31T00:59:53.273Z,70.63
2022-12-31T01:02:23.699Z,70.75
2022-12-31T01:04:56.994Z,70.72
2022-12-31T01:07:27.211Z,70.62
2022-12-31T01:09:57.127Z,70.50
2022-12-31T01:12:27.765Z,70.82
2022-12-31T01:14:57.600Z,70.74
2022-12-31T01:17:27.739Z,70.70
2022-12-31T01:20:00.176Z,70.67
2022-12-31T01:22:30.039Z,70.95
2022-12-31T01:24:59.886Z,71.14
2022-12-31T01:27:30.001Z,71.27
2022-12-31T01:29:59.879Z,71.24
2022-12-31T01:32:29.819Z,71.24
2022-12-31T01:35:02.260Z,71.29
2022-12-31T01:37:33.767Z,71.50
2022-12-31T01:40:03.888Z,71.65
2022-12-31T01:42:33.716Z,71.52
2022-12-31T01:45:03.815Z,71.46
2022-12-31T01:47:41.595Z,71.27
2022-12-31T01:50:19.192Z,71.48
2022-12-31T01:52:53.241Z,71.44
2022-12-31T01:55:28.192Z,71.62
2022-12-31T01:58:04.230Z,71.67
2022-12-31T02:00:37.138Z,71.64
2022-12-31T02:03:10.396Z,71.41
2022-12-31T02:05:50.848Z,71.30
2022-12-31T02:08:21.537Z,71.26
2022-12-31T02:10:51.406Z,71.04
2022-12-31T02:13:21.597Z,70.94
2022-12-31T02:16:08.137Z,71.24
2022-12-31T02:18:48.644Z,71.41
2022-12-31T02:21:42.841Z,71.56
2022-12-31T02:24:41.267Z,71.17
2022-12-31T02:27:16.248Z,71.23
2022-12-31T02:30:17.136Z,71.38
2022-12-31T02:33:06.186Z,71.20
2022-12-31T02:35:49.329Z,71.21
2022-12-31T02:38:25.280Z,71.18
2022-12-31T02:40:57.240Z,71.18
2022-12-31T02:43:27.711Z,71.07
2022-12-31T02:46:11.381Z,70.71
2022-12-31T02:48:56.036Z,70.89
2022-12-31T02:51:39.555Z,70.92
2022-12-31T02:54:26.627Z,70.88
2022-12-31T02:57:09.670Z,70.77
2022-12-31T02:59:59.653Z,70.64
2022-12-31T03:02:38.331Z,70.97
2022-12-31T03:05:09.804Z,70.52
2022-12-31T03:07:39.852Z,70.42
2022-12-31T03:10:11.195Z,70.44
2022-12-31T03:12:49.215Z,70.28
2022-12-31T03:15:24.816Z,70.36
2022-12-31T03:18:02.158Z,70.22
2022-12-31T03:20:47.944Z,70.18
2022-12-31T03:23:22.744Z,69.97
2022-12-31T03:25:50.161Z,69.46
2022-12-31T03:28:21.995Z,69.55
2022-12-31T03:30:54.611Z,69.47
2022-12-31T03:33:28.782Z,69.10
2022-12-31T03:35:58.604Z,69.25
2022-12-31T03:38:28.565Z,68.59
2022-12-31T03:40:59.229Z,68.63
2022-12-31T03:43:29.580Z,68.67
2022-12-31T03:46:01.724Z,68.57
2022-12-31T03:48:34.234Z,68.76
2022-12-31T03:51:04.025Z,68.64
2022-12-31T03:53:36.005Z,68.50
2022-12-31T03:56:06.054Z,68.08
2022-12-31T03:58:35.947Z,67.84
2022-12-31T04:01:05.960Z,67.77
2022-12-31T04:03:38.895Z,67.86
2022-12-31T04:06:09.849Z,67.90
2022-12-31T04:08:39.661Z,67.90
2022-12-31T04:11:09.522Z,67.47
2022-12-31T04:13:39.553Z,66.98
2022-12-31T04:16:09.365Z,66.99
2022-12-31T04:18:41.847Z,66.96
2022-12-31T04:21:12.064Z,66.62
2022-12-31T04:23:43.483Z,66.54
2022-12-31T04:26:13.367Z,66.09
2022-12-31T04:28:43.224Z,66.26
2022-12-31T04:31:13.963Z,66.05
2022-12-31T04:33:46.614Z,66.22
2022-12-31T04:36:16.762Z,66.09
2022-12-31T04:38:46.703Z,66.69
2022-12-31T04:41:20.809Z,65.71
2022-12-31T04:43:53.137Z,66.65
2022-12-31T04:46:25.604Z,65.08
2022-12-31T04:48:58.716Z,65.52
2022-12-31T04:51:30.548Z,65.09
2022-12-31T04:54:01.011Z,64.90
2022-12-31T04:56:32.194Z,65.00
2022-12-31T04:59:02.301Z,64.37
2022-12-31T05:01:33.575Z,64.53
2022-12-31T05:04:06.348Z,64.83
2022-12-31T05:06:36.233Z,64.92
2022-12-31T05:09:06.936Z,64.64
2022-12-31T05:11:37.972Z,65.08
2022-12-31T05:14:07.886Z,64.30
2022-12-31T05:16:37.745Z,64.22
2022-12-31T05:19:10.179Z,64.31
2022-12-31T05:21:41.522Z,65.37
2022-12-31T05:24:11.538Z,64.64
2022-12-31T05:26:41.669Z,64.61
2022-12-31T05:29:11.912Z,65.08
2022-12-31T05:31:41.765Z,64.97
2022-12-31T05:34:14.599Z,65.52
2022-12-31T05:36:44.458Z,65.27
2022-12-31T05:39:14.924Z,64.93
2022-12-31T05:41:44.742Z,64.85
2022-12-31T05:44:14.981Z,64.93
2022-12-31T05:46:44.842Z,64.87
2022-12-31T05:49:17.607Z,64.92
2022-12-31T05:51:47.758Z,65.38
2022-12-31T05:54:17.629Z,65.04
2022-12-31T05:56:47.658Z,65.27
2022-12-31T05:59:17.498Z,65.47
2022-12-31T06:01:47.371Z,65.66
2022-12-31T06:04:20.393Z,65.65
2022-12-31T06:06:50.307Z,65.92
2022-12-31T06:09:22.002Z,65.93
2022-12-31T06:11:52.690Z,66.55
2022-12-31T06:14:22.819Z,66.50
2022-12-31T06:16:52.680Z,66.99
2022-12-31T06:19:25.199Z,66.87
2022-12-31T06:21:55.054Z,66.64
2022-12-31T06:24:24.991Z,66.80
2022-12-31T06:26:54.837Z,66.69
2022-12-31T06:29:24.659Z,66.76
2022-12-31T06:31:54.882Z,66.66
2022-12-31T06:34:27.584Z,66.38
2022-12-31T06:36:57.885Z,66.71
2022-12-31T06:39:28.296Z,66.70
2022-12-31T06:41:58.557Z,67.06
2022-12-31T06:44:28.745Z,67.12
2022-12-31T06:46:58.628Z,67.21
2022-12-31T06:49:30.998Z,66.86
2022-12-31T06:52:00.798Z,66.52
2022-12-31T06:54:30.874Z,66.16
2022-12-31T06:57:02.244Z,66.26
2022-12-31T06:59:33.451Z,66.25
2022-12-31T07:02:17.106Z,65.40
2022-12-31T07:05:07.991Z,65.86
2022-12-31T07:07:51.186Z,66.28
2022-12-31T07:10:36.678Z,65.93
2022-12-31T07:13:27.693Z,65.90
2022-12-31T07:16:12.283Z,65.64
2022-12-31T07:18:53.684Z,65.72
2022-12-31T07:21:37.243Z,65.67
2022-12-31T07:24:10.254Z,66.01
2022-12-31T07:27:00.125Z,65.68
2022-12-31T07:29:45.781Z,65.84
2022-12-31T07:32:28.688Z,65.84
2022-12-31T07:35:08.005Z,65.83
2022-12-31T07:37:52.031Z,65.72
2022-12-31T07:40:32.215Z,65.89
2022-12-31T07:43:16.973Z,66.08
2022-12-31T07:45:56.210Z,66.09
2022-12-31T07:48:29.260Z,65.79
2022-12-31T07:51:00.807Z,65.47
2022-12-31T07:53:34.096Z,65.07
2022-12-31T07:56:06.686Z,64.86
2022-12-31T07:58:59.977Z,65.68
2022-12-31T08:01:39.786Z,66.11
2022-12-31T08:04:22.576Z,65.62
2022-12-31T08:07:07.560Z,63.74
2022-12-31T08:09:49.666Z,62.91
2022-12-31T08:12:22.891Z,63.78
2022-12-31T08:14:55.438Z,64.36
2022-12-31T08:17:26.080Z,64.11
2022-12-31T08:19:56.645Z,62.72
2022-12-31T08:22:51.721Z,62.41
2022-12-31T08:25:33.326Z,63.34
2022-12-31T08:28:18.605Z,63.20
2022-12-31T08:31:00.596Z,63.46
2022-12-31T08:33:40.513Z,63.46
2022-12-31T08:36:21.162Z,63.12
2022-12-31T08:39:01.001Z,61.24
2022-12-31T08:41:44.410Z,56.27
2022-12-31T08:44:28.707Z,52.67
2022-12-31T08:47:09.869Z,48.77
2022-12-31T08:49:40.848Z,47.17
2022-12-31T08:52:18.474Z,44.81
2022-12-31T08:54:49.049Z,43.79
2022-12-31T08:57:33.834Z,44.73
2022-12-31T09:00:09.472Z,41.95
2022-12-31T09:03:03.309Z,40.16
2022-12-31T09:05:41.830Z,42.90
2022-12-31T09:08:26.795Z,41.56
2022-12-31T09:11:03.435Z,43.36
2022-12-31T09:14:01.776Z,43.08
2022-12-31T09:16:45.963Z,41.78
2022-12-31T09:19:18.303Z,40.65
2022-12-31T09:21:48.681Z,38.25
2022-12-31T09:24:19.597Z,37.38
2022-12-31T09:27:03.501Z,41.72
2022-12-31T09:29:48.658Z,43.97
2022-12-31T09:32:32.436Z,45.82
2022-12-31T09:35:15.091Z,45.86
2022-12-31T09:37:49.783Z,46.52
2022-12-31T09:40:51.926Z,44.80
2022-12-31T09:44:01.487Z,37.79
2022-12-31T09:47:01.286Z,35.43
2022-12-31T09:50:05.456Z,33.36
2022-12-31T09:52:52.515Z,35.94
2022-12-31T09:55:37.477Z,36.05
2022-12-31T09:58:28.565Z,35.58
2022-12-31T10:01:10.903Z,34.17
2022-12-31T10:04:12.992Z,33.84
2022-12-31T10:07:02.761Z,32.56
2022-12-31T10:09:49.825Z,33.94
2022-12-31T10:12:49.713Z,38.02
2022-12-31T10:15:53.101Z,37.73
2022-12-31T10:18:40.854Z,36.35
2022-12-31T10:21:30.094Z,36.79
2022-12-31T10:24:30.767Z,39.96
2022-12-31T10:27:17.709Z,41.53
2022-12-31T10:29:54.094Z,42.19
2022-12-31T10:32:39.973Z,42.78
2022-12-31T10:35:26.582Z,43.21
2022-12-31T10:38:09.685Z,43.73
2022-12-31T10:41:27.299Z,44.68
2022-12-31T10:44:36.082Z,45.01
2022-12-31T10:47:45.828Z,45.48
2022-12-31T10:50:40.488Z,45.37
2022-12-31T10:53:44.361Z,45.92
2022-12-31T10:57:04.473Z,45.83
2022-12-31T11:00:05.964Z,46.05
2022-12-31T11:03:13.306Z,46.50
2022-12-31T11:06:29.538Z,46.98
2022-12-31T11:09:49.420Z,47.10
2022-12-31T11:12:44.014Z,47.46
2022-12-31T11:15:38.807Z,48.09
2022-12-31T11:18:22.483Z,48.41
2022-12-31T11:21:12.109Z,48.72
2022-12-31T11:23:56.708Z,49.42
2022-12-31T11:26:44.530Z,49.26
2022-12-31T11:29:41.252Z,48.60
2022-12-31T11:32:30.867Z,47.49
2022-12-31T11:35:17.692Z,46.72
2022-12-31T11:37:51.839Z,46.78
2022-12-31T11:40:40.587Z,45.91
2022-12-31T11:43:24.486Z,45.81
2022-12-31T11:46:24.382Z,44.96
2022-12-31T11:49:17.426Z,45.20
2022-12-31T11:52:05.259Z,44.85
2022-12-31T11:55:07.151Z,44.57
2022-12-31T11:57:39.758Z,44.66
2022-12-31T12:00:20.708Z,44.16
2022-12-31T12:02:56.585Z,44.79
2022-12-31T12:05:29.174Z,45.42
2022-12-31T12:07:59.458Z,45.94
2022-12-31T12:10:37.105Z,45.96
2022-12-31T12:13:16.963Z,45.46
2022-12-31T12:15:51.736Z,45.74
2022-12-31T12:18:37.025Z,45.96
2022-12-31T12:21:12.368Z,44.86
2022-12-31T12:23:46.281Z,45.88
2022-12-31T12:26:31.226Z,49.10
2022-12-31T12:29:04.315Z,50.13
2022-12-31T12:31:34.315Z,50.21
2022-12-31T12:34:09.312Z,50.09
2022-12-31T12:36:50.014Z,49.98
2022-12-31T12:39:27.534Z,50.48
2022-12-31T12:42:06.785Z,51.28
2022-12-31T12:44:38.208Z,52.23
2022-12-31T12:47:11.771Z,53.12
2022-12-31T12:49:49.523Z,54.00
2022-12-31T12:52:57.837Z,54.28
2022-12-31T12:55:44.568Z,54.82
2022-12-31T12:58:30.393Z,54.94
2022-12-31T13:01:13.623Z,55.06
2022-12-31T13:04:35.934Z,55.42
2022-12-31T13:07:27.733Z,55.36
2022-12-31T13:10:15.243Z,56.26
2022-12-31T13:13:23.309Z,56.14
2022-12-31T13:16:00.016Z,56.64
2022-12-31T13:18:44.515Z,57.17
2022-12-31T13:21:33.960Z,57.14
2022-12-31T13:24:24.210Z,57.29
2022-12-31T13:27:03.441Z,57.26
2022-12-31T13:29:38.111Z,57.76
2022-12-31T13:32:18.573Z,58.23
2022-12-31T13:34:54.399Z,59.05
2022-12-31T13:37:34.045Z,59.41
2022-12-31T13:40:21.180Z,59.04
2022-12-31T13:42:58.808Z,59.40
2022-12-31T13:45:35.677Z,59.35
2022-12-31T13:48:17.173Z,59.20
2022-12-31T13:50:58.276Z,59.25
2022-12-31T13:53:39.163Z,59.35
2022-12-31T13:56:19.555Z,59.46
2022-12-31T13:58:56.005Z,59.25
2022-12-31T14:01:36.142Z,59.81
2022-12-31T14:04:13.131Z,58.87
2022-12-31T14:06:52.501Z,58.93
2022-12-31T14:09:26.931Z,59.19
2022-12-31T14:12:24.608Z,59.12
2022-12-31T14:15:06.376Z,59.17
2022-12-31T14:17:53.527Z,59.84
2022-12-31T14:20:35.443Z,59.22
2022-12-31T14:23:21.035Z,59.97
2022-12-31T14:25:57.253Z,58.81
2022-12-31T14:28:44.698Z,61.76
2022-12-31T14:31:33.523Z,62.64
2022-12-31T14:34:17.505Z,63.16
2022-12-31T14:37:00.060Z,64.04
2022-12-31T14:39:49.439Z,64.30
2022-12-31T14:42:32.784Z,64.59
2022-12-31T14:45:30.207Z,65.24
2022-12-31T14:48:18.599Z,65.64
2022-12-31T14:50:52.788Z,63.56
2022-12-31T14:53:27.336Z,62.19
2022-12-31T14:56:02.460Z,62.67
2022-12-31T14:58:37.533Z,61.96
2022-12-31T15:01:26.121Z,61.54
2022-12-31T15:03:58.758Z,60.73
2022-12-31T15:06:46.070Z,60.28
2022-12-31T15:09:37.528Z,61.59
2022-12-31T15:12:33.584Z,64.12
2022-12-31T15:15:29.459Z,65.07
2022-12-31T15:18:22.017Z,65.78
2022-12-31T15:21:17.961Z,66.42
2022-12-31T15:23:49.751Z,66.27
2022-12-31T15:26:27.074Z,66.40
2022-12-31T15:29:03.977Z,68.36
2022-12-31T15:31:38.314Z,68.32
2022-12-31T15:34:29.811Z,68.60
2022-12-31T15:37:02.879Z,67.71
2022-12-31T15:39:54.976Z,70.23
2022-12-31T15:42:49.843Z,70.82
2022-12-31T15:45:29.582Z,70.25
2022-12-31T15:48:04.975Z,71.85
2022-12-31T15:50:42.000Z,71.56
2022-12-31T15:53:29.981Z,72.08
2022-12-31T15:56:03.680Z,71.53
2022-12-31T15:58:38.563Z,71.91
2022-12-31T16:01:18.878Z,71.76
2022-12-31T16:03:54.995Z,74.52
2022-12-31T16:06:31.353Z,75.51
2022-12-31T16:09:02.055Z,75.13
2022-12-31T16:11:32.755Z,75.27
2022-12-31T16:14:02.697Z,75.82
2022-12-31T16:16:36.104Z,74.88
2022-12-31T16:19:06.298Z,73.30
2022-12-31T16:21:40.772Z,73.02
2022-12-31T16:24:31.734Z,73.11
2022-12-31T16:27:08.368Z,73.15
2022-12-31T16:29:40.463Z,74.03
2022-12-31T16:32:19.182Z,74.57
2022-12-31T16:34:49.458Z,75.09
2022-12-31T16:37:24.963Z,75.03
2022-12-31T16:40:12.199Z,74.91
2022-12-31T16:42:44.611Z,74.66
2022-12-31T16:45:27.566Z,75.22
2022-12-31T16:47:58.394Z,76.08
2022-12-31T16:50:29.499Z,75.65
2022-12-31T16:53:09.395Z,75.05
2022-12-31T16:55:39.441Z,75.99
2022-12-31T16:58:22.195Z,76.75
2022-12-31T17:00:54.712Z,76.86
2022-12-31T17:03:27.798Z,76.81
2022-12-31T17:06:01.586Z,77.21
2022-12-31T17:08:44.472Z,77.55
2022-12-31T17:11:31.748Z,77.16
2022-12-31T17:14:14.609Z,76.68
2022-12-31T17:17:02.110Z,76.87
2022-12-31T17:19:46.344Z,76.45
2022-12-31T17:22:31.827Z,75.75
2022-12-31T17:25:12.126Z,76.48
2022-12-31T17:27:42.067Z,76.76
2022-12-31T17:30:40.180Z,77.35
2022-12-31T17:33:32.424Z,76.60
2022-12-31T17:36:25.560Z,75.89
2022-12-31T17:38:55.459Z,75.53
2022-12-31T17:41:30.688Z,74.93
2022-12-31T17:44:00.674Z,73.80
2022-12-31T17:46:31.215Z,73.90
2022-12-31T17:49:05.039Z,74.10
2022-12-31T17:51:35.264Z,73.87
2022-12-31T17:54:05.184Z,73.24
2022-12-31T17:56:39.103Z,73.58
2022-12-31T17:59:09.736Z,73.25
2022-12-31T18:01:39.759Z,73.59
2022-12-31T18:04:15.192Z,73.71
2022-12-31T18:06:46.110Z,74.82
2022-12-31T18:09:16.565Z,74.85
2022-12-31T18:11:49.591Z,73.85
2022-12-31T18:14:19.848Z,73.75
2022-12-31T18:16:49.958Z,74.84
2022-12-31T18:19:45.859Z,74.84
2022-12-31T18:22:10.408Z,74.81
2022-12-31T18:24:40.586Z,74.41
2022-12-31T18:27:19.498Z,73.67
2022-12-31T18:29:50.445Z,73.62
2022-12-31T18:32:25.277Z,73.34
2022-12-31T18:34:55.400Z,73.76
2022-12-31T18:37:25.537Z,73.51
2022-12-31T18:39:55.549Z,73.25
2022-12-31T18:42:31.533Z,74.35
2022-12-31T18:45:01.804Z,74.99
2022-12-31T18:47:37.427Z,76.13
2022-12-31T18:50:09.231Z,76.18
2022-12-31T18:52:39.400Z,76.48
2022-12-31T18:55:27.221Z,75.96
2022-12-31T18:57:59.619Z,75.83
2022-12-31T19:00:29.707Z,77.58
2022-12-31T19:02:59.936Z,77.99
2022-12-31T19:05:32.157Z,78.11
2022-12-31T19:08:02.994Z,78.12
2022-12-31T19:10:33.183Z,78.23
2022-12-31T19:13:06.415Z,78.73
2022-12-31T19:15:44.656Z,77.88
2022-12-31T19:18:15.522Z,79.01
2022-12-31T19:20:45.756Z,78.70
2022-12-31T19:23:19.052Z,79.38
2022-12-31T19:25:50.470Z,79.38
2022-12-31T19:28:25.439Z,79.18
2022-12-31T19:30:58.618Z,79.56
2022-12-31T19:33:28.550Z,79.47
2022-12-31T19:35:58.966Z,78.77
2022-12-31T19:38:32.217Z,78.96
2022-12-31T19:41:03.951Z,79.05
2022-12-31T19:43:36.425Z,78.49
2022-12-31T19:46:07.268Z,78.32
2022-12-31T19:48:37.462Z,78.31
2022-12-31T19:51:13.088Z,78.55
2022-12-31T19:53:43.622Z,78.65
2022-12-31T19:56:16.316Z,78.76
2022-12-31T19:58:49.525Z,78.55
2022-12-31T20:01:23.103Z,78.02
2022-12-31T20:03:53.999Z,77.73
2022-12-31T20:06:27.618Z,77.11
2022-12-31T20:08:58.469Z,76.79
2022-12-31T20:11:28.781Z,77.03
2022-12-31T20:14:01.591Z,76.85
2022-12-31T20:16:34.214Z,76.48
2022-12-31T20:19:04.197Z,76.27
2022-12-31T20:21:34.513Z,76.26
2022-12-31T20:24:04.441Z,75.99
2022-12-31T20:26:34.584Z,75.73
2022-12-31T20:29:07.153Z,75.56
2022-12-31T20:31:37.309Z,75.59
2022-12-31T20:34:07.627Z,75.44
2022-12-31T20:36:37.450Z,75.39
2022-12-31T20:39:07.461Z,75.46
2022-12-31T20:41:37.386Z,75.73
2022-12-31T20:44:10.924Z,76.05
2022-12-31T20:46:41.066Z,75.90
2022-12-31T20:49:13.922Z,76.28
2022-12-31T20:51:48.841Z,76.53
2022-12-31T20:54:21.916Z,77.19
2022-12-31T20:56:51.876Z,76.78
2022-12-31T20:59:24.641Z,77.32
2022-12-31T21:02:20.457Z,76.44
2022-12-31T21:04:47.252Z,76.72
2022-12-31T21:07:17.299Z,76.87
2022-12-31T21:09:47.145Z,76.23
2022-12-31T21:12:29.493Z,75.14
2022-12-31T21:15:02.471Z,75.16
2022-12-31T21:17:33.120Z,75.01
2022-12-31T21:20:03.218Z,74.70
2022-12-31T21:22:34.070Z,74.60
2022-12-31T21:25:05.010Z,74.00
2022-12-31T21:27:34.911Z,74.12
2022-12-31T21:30:23.642Z,74.66
2022-12-31T21:32:54.192Z,74.21
2022-12-31T21:35:55.109Z,73.61
2022-12-31T21:38:16.927Z,72.75
2022-12-31T21:40:47.604Z,72.08
2022-12-31T21:43:18.761Z,71.88
2022-12-31T21:46:05.404Z,71.95
2022-12-31T21:48:36.408Z,70.95
2022-12-31T21:51:13.017Z,71.14
2022-12-31T21:53:43.150Z,70.50
2022-12-31T21:56:11.586Z,70.47
2022-12-31T21:58:45.442Z,70.07
2022-12-31T22:01:36.306Z,70.51
2022-12-31T22:04:12.887Z,70.85
2022-12-31T22:06:52.916Z,71.19
2022-12-31T22:09:23.229Z,71.27
2022-12-31T22:11:53.096Z,70.86
2022-12-31T22:14:22.997Z,70.69
2022-12-31T22:16:55.708Z,70.29
2022-12-31T22:19:26.128Z,70.46
2022-12-31T22:21:56.494Z,70.38
2022-12-31T22:24:27.807Z,70.47
2022-12-31T22:27:00.116Z,70.78
2022-12-31T22:29:51.507Z,70.77
2022-12-31T22:32:24.163Z,71.37
2022-12-31T22:34:55.415Z,71.50
2022-12-31T22:37:55.629Z,71.42
2022-12-31T22:40:16.300Z,71.56
2022-12-31T22:42:46.674Z,71.43
2022-12-31T22:45:16.510Z,71.32
2022-12-31T22:47:49.692Z,71.17
2022-12-31T22:50:19.775Z,71.07
2022-12-31T22:52:50.139Z,71.08
2022-12-31T22:55:20.436Z,71.17
2022-12-31T22:57:54.136Z,70.85
2022-12-31T23:00:40.236Z,71.08
2022-12-31T23:03:15.037Z,71.12
2022-12-31T23:05:45.028Z,70.82
2022-12-31T23:08:22.341Z,70.49
2022-12-31T23:11:01.435Z,70.05
2022-12-31T23:13:50.687Z,69.34
2022-12-31T23:16:34.676Z,67.91
2022-12-31T23:19:23.273Z,67.07
2022-12-31T23:22:08.512Z,66.65
2022-12-31T23:24:41.484Z,65.55
2022-12-31T23:27:13.555Z,62.57
2022-12-31T23:29:47.492Z,62.38
2022-12-31T23:32:18.769Z,61.54
2022-12-31T23:34:51.226Z,58.57
2022-12-31T23:37:23.989Z,59.36
2022-12-31T23:39:53.890Z,59.26
2022-12-31T23:42:23.784Z,59.09
2022-12-31T23:44:54.068Z,59.03
2022-12-31T23:47:24.166Z,59.85
2022-12-31T23:49:58.196Z,60.37
2022-12-31T23:52:28.865Z,60.68
2022-12-31T23:54:59.299Z,60.72
2022-12-31T23:57:29.765Z,60.86
